Sainte-Henedine, Canada
Current Conditions -  °F | °C
As of 7:00 PM on Sunday 21 Dec 2014 (Local Time) from CYQB Reporting Station
Light Snow Light Snow  
Wind Chill: 11°   Ceiling: 1300
Heat Index: 18°   Visibility: 6mi
Dew Point: 12°   Wind: 5mph
Humidity: 79%   Direction: 360°N
Pressure: 30.4"   Gusts: NA
Location:  46.57°N, 70.98°W
Report Text: CYQB 220000Z 36004KT 6SM -SN OVC013 M08/M11 A3040 RMK SC8 SLP301
Loading
Personal Weather Stations






























Interactive Weather Map New forecast layout! Learn more

10-Day Weather Forecast

Advertisements
Track Severe Weather on mobile